Aviation Digital Data Service (ADDS)

Output produced by METARs form (1818 UTC 21 September 2019)
found at http://aviationweather.gov/metar/data/
 
KSHV 211734Z 2118/2218 16009KT P6SM SCT045 
     FM220100 14006KT P6SM SKC 
     FM221100 15006KT P6SM BKN012 
     FM221500 18011KT P6SM BKN018